Temp: 8.2°C   Baro: 1033.0mb
  Wind: 4.0mph   Dir: ESE (113°)
  Rain: 0.0mm (0.0mm/hr)
  Solar: 211W/m2  Hum: 69%
 
Bath Spa Weather Historical Data
Daily Summary for February 27, 2020 Units:  Metric    English   Both
Next Day »
Daily Weekly Monthly Yearly Custom
  High: Low: Average:
Temperature: 8.7 °C 1.1 °C 4.2 °C
Dew Point: 3.2 °C -0.9 °C 0.7 °C
Humidity: 93% 58% 79%
Wind Speed: 28.8km/h 0.0km/h 7.6km/h
Wind Gust: 35.4km/h - -
Wind direction- - West
Pressure: 1014.8 hPa 994.8 hPa -
Precipitation: 0.0 mm    
Historical Graphs
 
 
Tabular Data for February 27, 2020
Time Temperature Dew Point Pressure Wind direction Wind Speed Wind Gust Humidity Rainfall Rate (Hourly) solar
00:00 3.3 °C 2.1 °C 995.1 hPa ENE 4.7 km/h 9.7 km/h 92% 1.3 mm 0.00 W/m2
00:05 3.3 °C 2.1 °C 995.1 hPa ESE 6.4 km/h 11.3 km/h 92% 1.5 mm 0.00 W/m2
00:10 3.2 °C 2.0 °C 995.1 hPa ENE 9.7 km/h 16.1 km/h 92% 1.3 mm 0.00 W/m2
00:15 3.2 °C 2.0 °C 995.1 hPa ENE 11.1 km/h 17.7 km/h 92% 1.3 mm 0.00 W/m2
00:20 3.1 °C 1.9 °C 995.1 hPa ENE 4.7 km/h 17.7 km/h 92% 1.3 mm 0.00 W/m2
00:25 3.1 °C 1.9 °C 994.8 hPa East 11.1 km/h 22.5 km/h 92% 1.3 mm 0.00 W/m2
00:30 3.0 °C 1.8 °C 995.1 hPa NNE 9.7 km/h 14.5 km/h 92% 1.3 mm 0.00 W/m2
00:35 2.9 °C 1.7 °C 995.1 hPa North 4.7 km/h 12.9 km/h 92% 1.3 mm 0.00 W/m2
00:40 2.8 °C 1.6 °C 995.1 hPa NE 14.3 km/h 17.7 km/h 92% 1.5 mm 0.00 W/m2
00:45 2.8 °C 1.6 °C 995.1 hPa ENE 3.2 km/h 11.3 km/h 92% 1.3 mm 0.00 W/m2
00:50 2.7 °C 1.5 °C 995.1 hPa East 6.4 km/h 14.5 km/h 92% 1.5 mm 0.00 W/m2
00:55 2.7 °C 1.5 °C 995.1 hPa NNE 1.4 km/h 14.5 km/h 92% 1.3 mm 0.00 W/m2
01:00 2.6 °C 1.4 °C 995.1 hPa East 3.2 km/h 12.9 km/h 92% 1.5 mm 0.00 W/m2
01:05 2.6 °C 1.4 °C 995.1 hPa Calm   8.0 km/h 92% 1.5 mm 0.00 W/m2
01:10 2.5 °C 1.3 °C 995.1 hPa East 4.7 km/h 4.8 km/h 92% 1.3 mm 0.00 W/m2
01:15 2.4 °C 1.2 °C 995.1 hPa NE 3.2 km/h 11.3 km/h 92% 1.5 mm 0.00 W/m2
01:20 2.3 °C 1.1 °C 995.1 hPa NE 3.2 km/h 12.9 km/h 92% 1.3 mm 0.00 W/m2
01:25 2.3 °C 1.1 °C 995.1 hPa NE 3.2 km/h 8.0 km/h 92% 1.5 mm 0.00 W/m2
01:30 2.2 °C 1.0 °C 995.1 hPa NNE 7.9 km/h 19.3 km/h 92% 1.5 mm 0.00 W/m2
01:35 2.2 °C 1.2 °C 995.5 hPa NNE 3.2 km/h 11.3 km/h 93% 1.5 mm 0.00 W/m2
01:40 2.2 °C 1.2 °C 995.5 hPa North 11.1 km/h 11.3 km/h 93% 1.5 mm 0.00 W/m2
01:45 2.1 °C 0.9 °C 995.8 hPa NNW 6.4 km/h 19.3 km/h 92% 1.5 mm 0.00 W/m2
01:50 1.9 °C 0.9 °C 995.8 hPa NNE 11.1 km/h 19.3 km/h 93% 1.5 mm 0.00 W/m2
01:55 1.9 °C 0.9 °C 995.8 hPa NE 14.3 km/h 19.3 km/h 93% 1.8 mm 0.00 W/m2
02:00 1.8 °C 0.8 °C 996.2 hPa NW 6.4 km/h 16.1 km/h 93% 1.5 mm 0.00 W/m2
02:05 1.8 °C 0.8 °C 996.2 hPa NNE 13.0 km/h 19.3 km/h 93% 1.5 mm 0.00 W/m2
02:10 1.8 °C 0.8 °C 996.2 hPa NNW 6.4 km/h 20.9 km/h 93% 1.5 mm 0.00 W/m2
02:15 1.7 °C 0.7 °C 996.2 hPa North 14.3 km/h 17.7 km/h 93% 1.5 mm 0.00 W/m2
02:20 1.8 °C 0.8 °C 996.5 hPa North 3.2 km/h 12.9 km/h 93% 1.5 mm 0.00 W/m2
02:25 1.9 °C 0.9 °C 996.5 hPa NNE 6.4 km/h 17.7 km/h 93% 1.5 mm 0.00 W/m2
02:30 1.9 °C 0.9 °C 996.8 hPa NE 11.1 km/h 16.1 km/h 93% 1.5 mm 7.00 W/m2
02:35 1.9 °C 0.9 °C 996.8 hPa NNE 7.9 km/h 16.1 km/h 93% 1.5 mm 12.00 W/m2
02:40 1.9 °C 0.9 °C 996.8 hPa North 6.4 km/h 14.5 km/h 93% 1.5 mm 19.00 W/m2
02:45 1.8 °C 0.8 °C 997.2 hPa North 4.7 km/h 9.7 km/h 93% 1.5 mm 23.00 W/m2
02:50 1.8 °C 0.8 °C 997.2 hPa NNW 7.9 km/h 12.9 km/h 93% 1.5 mm 26.00 W/m2
02:55 1.8 °C 0.8 °C 997.5 hPa NNE 14.3 km/h 17.7 km/h 93% 1.3 mm 37.00 W/m2
03:00 1.7 °C 0.7 °C 997.5 hPa North 7.9 km/h 17.7 km/h 93% 1.3 mm 54.00 W/m2
03:05 1.8 °C 0.8 °C 997.5 hPa NNE 1.4 km/h 11.3 km/h 93% 1.5 mm 70.00 W/m2
03:10 1.9 °C 0.9 °C 997.9 hPa NNE 11.1 km/h 11.3 km/h 93% 1.3 mm 60.00 W/m2
03:15 1.9 °C 0.9 °C 997.9 hPa North 6.4 km/h 11.3 km/h 93% 1.3 mm 54.00 W/m2
03:20 2.0 °C 1.0 °C 997.9 hPa North 7.9 km/h 12.9 km/h 93% 1.0 mm 69.00 W/m2
03:25 2.1 °C 1.1 °C 998.2 hPa NNW 7.9 km/h 17.7 km/h 93% 0.8 mm 127.00 W/m2
03:30 2.2 °C 1.2 °C 998.2 hPa NNW 9.7 km/h 16.1 km/h 93% 0.8 mm 118.00 W/m2
03:35 2.3 °C 1.3 °C 998.5 hPa NNE 7.9 km/h 9.7 km/h 93% 0.5 mm 120.00 W/m2
03:40 2.4 °C 1.4 °C 998.5 hPa NNW 1.4 km/h 8.0 km/h 93% 0.5 mm 91.00 W/m2
03:45 2.4 °C 1.4 °C 998.5 hPa North 4.7 km/h 14.5 km/h 93% 0.5 mm 81.00 W/m2
03:51 2.5 °C 1.5 °C 998.5 hPa NNE 6.4 km/h 11.3 km/h 93% 0.3 mm 86.00 W/m2
03:55 2.5 °C 1.5 °C 998.9 hPa WNW 7.9 km/h 14.5 km/h 93% 0.3 mm 76.00 W/m2
04:00 2.5 °C 1.5 °C 998.9 hPa North 11.1 km/h 17.7 km/h 93% 0.3 mm 81.00 W/m2
04:05 2.5 °C 1.5 °C 998.9 hPa NW 1.4 km/h 8.0 km/h 93% 0.0 mm 97.00 W/m2
04:10 2.6 °C 1.6 °C 999.2 hPa NW 6.4 km/h 11.3 km/h 93% 0.0 mm 69.00 W/m2
04:15 2.6 °C 1.6 °C 999.2 hPa NNW 7.9 km/h 14.5 km/h 93% 0.0 mm 98.00 W/m2
04:20 2.8 °C 1.8 °C 999.5 hPa NW 6.4 km/h 11.3 km/h 93% 0.0 mm 213.00 W/m2
04:25 3.1 °C 2.1 °C 999.5 hPa NW 4.7 km/h 11.3 km/h 93% 0.0 mm 204.00 W/m2
04:30 3.4 °C 2.4 °C 999.5 hPa NNW 1.4 km/h 6.4 km/h 93% 0.0 mm 287.00 W/m2
04:35 3.4 °C 2.4 °C 999.9 hPa NNW 6.4 km/h 17.7 km/h 93% 0.0 mm 309.00 W/m2
04:40 3.6 °C 2.6 °C 1000.2 hPa WNW 7.9 km/h 12.9 km/h 93% 0.0 mm 186.00 W/m2
04:45 3.7 °C 2.7 °C 1000.2 hPa WNW 16.3 km/h 16.1 km/h 93% 0.0 mm 120.00 W/m2
04:50 3.6 °C 2.6 °C 1000.2 hPa NW 3.2 km/h 11.3 km/h 93% 0.0 mm 244.00 W/m2
04:55 3.8 °C 2.6 °C 1000.2 hPa WNW 6.4 km/h 17.7 km/h 92% 0.0 mm 366.00 W/m2
05:00 3.9 °C 2.7 °C 1000.6 hPa NW 13.0 km/h 16.1 km/h 92% 0.0 mm 186.00 W/m2
05:05 4.1 °C 2.9 °C 1000.6 hPa WNW 13.0 km/h 14.5 km/h 92% 0.0 mm 206.00 W/m2
05:10 4.5 °C 3.2 °C 1000.9 hPa WNW 7.9 km/h 14.5 km/h 91% 0.0 mm 230.00 W/m2
05:15 4.4 °C 3.1 °C 1000.9 hPa NW 9.7 km/h 12.9 km/h 91% 0.0 mm 160.00 W/m2
05:20 4.6 °C 3.1 °C 1001.2 hPa NW 6.4 km/h 11.3 km/h 90% 0.0 mm 179.00 W/m2
05:25 4.6 °C 3.1 °C 1001.2 hPa NW 16.3 km/h 16.1 km/h 90% 0.0 mm 134.00 W/m2
05:30 4.7 °C 3.0 °C 1001.2 hPa NW 16.3 km/h 17.7 km/h 89% 0.0 mm 121.00 W/m2
05:35 4.9 °C 3.1 °C 1001.2 hPa NNW 16.3 km/h 27.4 km/h 88% 0.0 mm 134.00 W/m2
05:40 5.1 °C 3.0 °C 1001.6 hPa WNW 17.7 km/h 29.0 km/h 86% 0.0 mm 526.00 W/m2
05:45 5.3 °C 3.0 °C 1001.6 hPa WNW 7.9 km/h 20.9 km/h 85% 0.0 mm 417.00 W/m2
05:50 5.7 °C 3.2 °C 1001.6 hPa WNW 6.4 km/h 20.9 km/h 84% 0.0 mm 469.00 W/m2
05:55 5.8 °C 3.0 °C 1001.9 hPa NW 7.9 km/h 20.9 km/h 82% 0.0 mm 649.00 W/m2
06:00 5.8 °C 3.0 °C 1001.9 hPa NW 11.1 km/h 22.5 km/h 82% 0.0 mm 343.00 W/m2
06:05 5.8 °C 3.0 °C 1001.9 hPa NW 13.0 km/h 19.3 km/h 82% 0.0 mm 197.00 W/m2
06:10 5.8 °C 3.0 °C 1002.3 hPa NW 16.3 km/h 17.7 km/h 82% 0.0 mm 186.00 W/m2
06:15 5.8 °C 2.8 °C 1002.6 hPa NNW 14.3 km/h 27.4 km/h 81% 0.0 mm 234.00 W/m2
06:21 6.0 °C 2.6 °C 1002.6 hPa NW 22.7 km/h 22.5 km/h 79% 0.0 mm 165.00 W/m2
06:25 6.0 °C 2.3 °C 1002.6 hPa NNW 9.7 km/h 29.0 km/h 77% 0.0 mm 153.00 W/m2
06:30 6.3 °C 2.7 °C 1002.6 hPa NNW 16.3 km/h 25.7 km/h 78% 0.0 mm 125.00 W/m2
06:35 6.4 °C 2.7 °C 1002.9 hPa NW 20.9 km/h 20.9 km/h 77% 0.0 mm 113.00 W/m2
06:40 6.6 °C 2.5 °C 1002.9 hPa NW 11.1 km/h 24.1 km/h 75% 0.0 mm 192.00 W/m2
06:45 6.7 °C 2.2 °C 1003.3 hPa NW 24.1 km/h 32.2 km/h 73% 0.0 mm 144.00 W/m2
06:50 6.5 °C 2.0 °C 1003.3 hPa NW 13.0 km/h 24.1 km/h 73% 0.0 mm 142.00 W/m2
06:55 6.7 °C 2.2 °C 1003.3 hPa NW 14.3 km/h 32.2 km/h 73% 0.0 mm 492.00 W/m2
07:00 6.8 °C 1.9 °C 1003.6 hPa NNW 16.3 km/h 32.2 km/h 71% 0.0 mm 503.00 W/m2
07:05 6.9 °C 2.2 °C 1003.6 hPa NW 17.7 km/h 24.1 km/h 72% 0.0 mm 475.00 W/m2
07:10 6.9 °C 2.0 °C 1003.9 hPa WNW 11.1 km/h 33.8 km/h 71% 0.0 mm 520.00 W/m2
07:15 7.1 °C 1.8 °C 1003.9 hPa NW 11.1 km/h 20.9 km/h 69% 0.0 mm 529.00 W/m2
07:20 7.5 °C 2.4 °C 1003.9 hPa WNW 19.5 km/h 24.1 km/h 70% 0.0 mm 508.00 W/m2
07:25 7.5 °C 2.4 °C 1004.3 hPa NW 19.5 km/h 25.7 km/h 70% 0.0 mm 555.00 W/m2
07:30 7.3 °C 2.2 °C 1004.3 hPa NW 19.5 km/h 27.4 km/h 70% 0.0 mm 543.00 W/m2
07:35 7.3 °C 2.0 °C 1004.3 hPa NNW 17.7 km/h 24.1 km/h 69% 0.0 mm 543.00 W/m2
07:40 7.2 °C 1.7 °C 1004.3 hPa North 16.3 km/h 30.6 km/h 68% 0.0 mm 125.00 W/m2
07:45 7.4 °C 2.3 °C 1004.6 hPa NNE 17.7 km/h 24.1 km/h 70% 0.0 mm 561.00 W/m2
07:50 7.4 °C 1.5 °C 1004.6 hPa NNW 14.3 km/h 29.0 km/h 66% 0.0 mm 548.00 W/m2
07:55 7.7 °C 1.7 °C 1004.6 hPa NNW 11.1 km/h 29.0 km/h 66% 0.0 mm 519.00 W/m2
08:00 7.7 °C 1.3 °C 1005.0 hPa NW 19.5 km/h 27.4 km/h 64% 0.0 mm 526.00 W/m2
08:05 7.6 °C 1.2 °C 1005.0 hPa NNW 9.7 km/h 33.8 km/h 64% 0.0 mm 497.00 W/m2
08:10 7.7 °C 1.1 °C 1005.0 hPa NNW 17.7 km/h 30.6 km/h 63% 0.0 mm 494.00 W/m2
08:15 8.0 °C 1.6 °C 1005.3 hPa NW 13.0 km/h 25.7 km/h 64% 0.0 mm 529.00 W/m2
08:20 7.9 °C 1.1 °C 1005.3 hPa NW 24.1 km/h 25.7 km/h 62% 0.0 mm 524.00 W/m2
08:25 7.9 °C 1.1 °C 1005.6 hPa North 9.7 km/h 19.3 km/h 62% 0.0 mm 480.00 W/m2
08:30 8.1 °C 1.0 °C 1005.6 hPa NNW 14.3 km/h 22.5 km/h 61% 0.0 mm 497.00 W/m2
08:35 8.3 °C 1.0 °C 1005.6 hPa NNW 17.7 km/h 24.1 km/h 60% 0.0 mm 478.00 W/m2
08:40 8.1 °C 0.6 °C 1005.6 hPa NNW 11.1 km/h 29.0 km/h 59% 0.0 mm 476.00 W/m2
08:45 8.2 °C 0.9 °C 1005.6 hPa NW 9.7 km/h 33.8 km/h 60% 0.0 mm 468.00 W/m2
08:50 8.3 °C 0.8 °C 1006.0 hPa NW 19.5 km/h 29.0 km/h 59% 0.0 mm 469.00 W/m2
08:55 8.1 °C 0.3 °C 1006.0 hPa NNW 17.7 km/h 35.4 km/h 58% 0.0 mm 478.00 W/m2
09:00 8.1 °C 0.3 °C 1006.0 hPa WNW 13.0 km/h 25.7 km/h 58% 0.0 mm 392.00 W/m2
09:05 8.2 °C 0.7 °C 1006.0 hPa NNW 27.4 km/h 27.4 km/h 59% 0.0 mm 461.00 W/m2
09:10 8.2 °C 0.4 °C 1006.3 hPa NW 13.0 km/h 29.0 km/h 58% 0.0 mm 427.00 W/m2
09:15 8.3 °C 0.8 °C 1006.3 hPa NNW 16.3 km/h 25.7 km/h 59% 0.0 mm 427.00 W/m2
09:20 8.3 °C 0.8 °C 1006.3 hPa NW 13.0 km/h 25.7 km/h 59% 0.0 mm 427.00 W/m2
09:25 8.5 °C 1.2 °C 1006.3 hPa NW 11.1 km/h 25.7 km/h 60% 0.0 mm 432.00 W/m2
09:30 8.6 °C 1.0 °C 1006.7 hPa NNW 7.9 km/h 29.0 km/h 59% 0.0 mm 448.00 W/m2
09:35 8.7 °C 1.1 °C 1007.0 hPa NW 6.4 km/h 19.3 km/h 59% 0.0 mm 109.00 W/m2
09:40 8.1 °C 0.3 °C 1007.0 hPa WNW 16.3 km/h 35.4 km/h 58% 0.0 mm 86.00 W/m2
09:45 8.2 °C 0.7 °C 1007.0 hPa WNW 9.7 km/h 22.5 km/h 59% 0.0 mm 404.00 W/m2
09:50 8.3 °C 0.5 °C 1007.3 hPa NW 13.0 km/h 29.0 km/h 58% 0.0 mm 399.00 W/m2
09:55 8.4 °C 0.8 °C 1007.3 hPa North 19.5 km/h 30.6 km/h 59% 0.0 mm 376.00 W/m2
10:00 8.3 °C 0.8 °C 1007.7 hPa NNW 14.3 km/h 27.4 km/h 59% 0.0 mm 360.00 W/m2
10:05 8.2 °C 0.9 °C 1007.7 hPa West 7.9 km/h 20.9 km/h 60% 0.0 mm 352.00 W/m2
10:10 8.4 °C 0.8 °C 1008.0 hPa West 16.3 km/h 20.9 km/h 59% 0.0 mm 341.00 W/m2
10:15 8.4 °C 0.8 °C 1008.0 hPa WNW 27.4 km/h 27.4 km/h 59% 0.0 mm 325.00 W/m2
10:20 8.3 °C 0.5 °C 1008.0 hPa NNW 22.7 km/h 25.7 km/h 58% 0.0 mm 318.00 W/m2
10:25 8.3 °C 0.8 °C 1008.0 hPa WNW 16.3 km/h 22.5 km/h 59% 0.0 mm 313.00 W/m2
10:30 8.1 °C 0.6 °C 1008.4 hPa NW 28.8 km/h 30.6 km/h 59% 0.0 mm 58.00 W/m2
10:35 8.0 °C 0.5 °C 1008.4 hPa NNW 14.3 km/h 27.4 km/h 59% 0.0 mm 278.00 W/m2
10:40 8.1 °C 0.3 °C 1008.4 hPa West 16.3 km/h 33.8 km/h 58% 0.0 mm 269.00 W/m2
10:45 8.3 °C 0.8 °C 1008.7 hPa NNW 9.7 km/h 20.9 km/h 59% 0.0 mm 246.00 W/m2
10:50 8.4 °C 1.1 °C 1008.7 hPa WNW 11.1 km/h 11.3 km/h 60% 0.0 mm 246.00 W/m2
10:55 8.3 °C 1.0 °C 1009.0 hPa NW 14.3 km/h 19.3 km/h 60% 0.0 mm 102.00 W/m2
11:00 8.2 °C 0.7 °C 1009.0 hPa NW 11.1 km/h 32.2 km/h 59% 0.0 mm 211.00 W/m2
11:05 8.3 °C 0.8 °C 1009.4 hPa NW 7.9 km/h 20.9 km/h 59% 0.0 mm 153.00 W/m2
11:10 8.1 °C 0.6 °C 1009.4 hPa NNW 9.7 km/h 29.0 km/h 59% 0.0 mm 181.00 W/m2
11:15 7.8 °C 0.7 °C 1009.4 hPa West 14.3 km/h 22.5 km/h 61% 0.0 mm 51.00 W/m2
11:21 7.8 °C 0.7 °C 1009.4 hPa WNW 11.1 km/h 29.0 km/h 61% 0.0 mm 72.00 W/m2
11:25 7.9 °C 1.1 °C 1009.4 hPa NW 7.9 km/h 19.3 km/h 62% 0.0 mm 146.00 W/m2
11:30 7.9 °C 1.1 °C 1009.7 hPa NW 11.1 km/h 16.1 km/h 62% 0.0 mm 135.00 W/m2
11:35 7.9 °C 1.1 °C 1009.7 hPa NW 9.7 km/h 19.3 km/h 62% 0.0 mm 58.00 W/m2
11:40 7.7 °C 0.7 °C 1009.7 hPa NW 9.7 km/h 20.9 km/h 61% 0.0 mm 49.00 W/m2
11:45 7.6 °C 1.0 °C 1009.7 hPa NW 11.1 km/h 11.3 km/h 63% 0.0 mm 46.00 W/m2
11:50 7.5 °C 0.9 °C 1010.0 hPa NW 11.1 km/h 20.9 km/h 63% 0.0 mm 44.00 W/m2
11:55 7.4 °C 1.0 °C 1010.0 hPa NNW 14.3 km/h 14.5 km/h 64% 0.0 mm 28.00 W/m2
12:00 7.3 °C 0.9 °C 1010.0 hPa WNW 16.3 km/h 16.1 km/h 64% 0.0 mm 37.00 W/m2
12:05 7.3 °C 0.5 °C 1010.4 hPa NW 17.7 km/h 25.7 km/h 62% 0.0 mm 39.00 W/m2
12:10 7.3 °C 0.5 °C 1010.4 hPa NW 14.3 km/h 19.3 km/h 62% 0.0 mm 32.00 W/m2
12:15 7.3 °C 0.5 °C 1010.4 hPa NNW 9.7 km/h 14.5 km/h 62% 0.0 mm 23.00 W/m2
12:20 7.2 °C 0.4 °C 1010.7 hPa WNW 9.7 km/h 20.9 km/h 62% 0.0 mm 19.00 W/m2
12:25 7.1 °C 0.3 °C 1010.7 hPa NW 17.7 km/h 19.3 km/h 62% 0.0 mm 14.00 W/m2
12:30 7.0 °C 0.4 °C 1010.7 hPa NW 6.4 km/h 17.7 km/h 63% 0.0 mm 11.00 W/m2
12:35 6.8 °C 0.2 °C 1010.7 hPa NNW 11.1 km/h 20.9 km/h 63% 0.0 mm 7.00 W/m2
12:40 6.7 °C 0.2 °C 1011.1 hPa WNW 13.0 km/h 17.7 km/h 63% 0.0 mm 5.00 W/m2
12:45 6.6 °C 0.1 °C 1011.1 hPa WNW 13.0 km/h 24.1 km/h 63% 0.0 mm 0.00 W/m2
12:50 6.5 °C 0.0 °C 1011.1 hPa NNW 11.1 km/h 16.1 km/h 63% 0.0 mm 0.00 W/m2
12:55 6.4 °C -0.1 °C 1011.4 hPa WNW 13.0 km/h 22.5 km/h 63% 0.0 mm 0.00 W/m2
13:00 6.3 °C 0.0 °C 1011.4 hPa NW 13.0 km/h 20.9 km/h 64% 0.0 mm 0.00 W/m2
13:05 6.2 °C 0.1 °C 1011.7 hPa NNW 11.1 km/h 14.5 km/h 65% 0.0 mm 0.00 W/m2
13:10 6.1 °C 0.2 °C 1011.7 hPa NNW 11.1 km/h 17.7 km/h 66% 0.0 mm 0.00 W/m2
13:15 6.1 °C 0.2 °C 1011.7 hPa NW 13.0 km/h 12.9 km/h 66% 0.0 mm 0.00 W/m2
13:20 6.1 °C 0.2 °C 1012.1 hPa WNW 7.9 km/h 14.5 km/h 66% 0.0 mm 0.00 W/m2
13:25 6.0 °C 0.1 °C 1012.1 hPa WNW 4.7 km/h 8.0 km/h 66% 0.0 mm 0.00 W/m2
13:30 5.9 °C 0.2 °C 1012.4 hPa WNW 4.7 km/h 11.3 km/h 67% 0.0 mm 0.00 W/m2
13:35 5.6 °C 0.4 °C 1012.4 hPa West 6.4 km/h 8.0 km/h 69% 0.0 mm 0.00 W/m2
13:40 5.2 °C 0.4 °C 1012.4 hPa WNW 6.4 km/h 9.7 km/h 71% 0.0 mm 0.00 W/m2
13:45 5.1 °C 0.5 °C 1012.8 hPa WNW 3.2 km/h 6.4 km/h 72% 0.0 mm 0.00 W/m2
13:50 5.0 °C 0.4 °C 1012.8 hPa WNW 3.2 km/h 4.8 km/h 72% 0.0 mm 0.00 W/m2
13:55 4.9 °C 0.5 °C 1012.8 hPa WNW 3.2 km/h 6.4 km/h 73% 0.0 mm 0.00 W/m2
14:00 4.8 °C 0.4 °C 1012.8 hPa Calm   1.6 km/h 73% 0.0 mm 0.00 W/m2
14:05 4.8 °C 0.6 °C 1012.8 hPa Calm   1.6 km/h 74% 0.0 mm 0.00 W/m2
14:10 4.8 °C 0.6 °C 1013.1 hPa Calm   1.6 km/h 74% 0.0 mm 0.00 W/m2
14:16 4.6 °C 0.4 °C 1013.1 hPa Calm     74% 0.0 mm 0.00 W/m2
14:20 4.4 °C 0.4 °C 1013.1 hPa Calm     75% 0.0 mm 0.00 W/m2
14:25 4.1 °C 0.3 °C 1013.1 hPa WNW 1.4 km/h 3.2 km/h 76% 0.0 mm 0.00 W/m2
14:30 3.8 °C 0.0 °C 1013.1 hPa WNW 1.4 km/h 3.2 km/h 76% 0.0 mm 0.00 W/m2
14:35 3.7 °C 0.0 °C 1013.1 hPa WNW 3.2 km/h 6.4 km/h 77% 0.0 mm 0.00 W/m2
14:40 3.7 °C 0.0 °C 1013.4 hPa Calm   3.2 km/h 77% 0.0 mm 0.00 W/m2
14:45 3.6 °C -0.1 °C 1013.4 hPa WNW 1.4 km/h 1.6 km/h 77% 0.0 mm 0.00 W/m2
14:50 3.4 °C -0.1 °C 1013.4 hPa WNW 3.2 km/h 4.8 km/h 78% 0.0 mm 0.00 W/m2
14:55 3.3 °C -0.3 °C 1013.4 hPa WNW 3.2 km/h 3.2 km/h 77% 0.0 mm 0.00 W/m2
15:00 3.1 °C -0.4 °C 1013.8 hPa NW 1.4 km/h 6.4 km/h 78% 0.0 mm 0.00 W/m2
15:05 2.9 °C -0.6 °C 1013.8 hPa NW 4.7 km/h 4.8 km/h 78% 0.0 mm 0.00 W/m2
15:10 2.9 °C -0.6 °C 1014.1 hPa NW 4.7 km/h 4.8 km/h 78% 0.0 mm 0.00 W/m2
15:15 2.9 °C -0.6 °C 1014.1 hPa Calm   4.8 km/h 78% 0.0 mm 0.00 W/m2
15:20 2.8 °C -0.7 °C 1014.1 hPa Calm     78% 0.0 mm 0.00 W/m2
15:25 2.8 °C -0.7 °C 1014.1 hPa NW 3.2 km/h 3.2 km/h 78% 0.0 mm 0.00 W/m2
15:30 2.7 °C -0.8 °C 1014.1 hPa NW 3.2 km/h 3.2 km/h 78% 0.0 mm 0.00 W/m2
15:35 2.6 °C -0.8 °C 1014.4 hPa Calm     78% 0.0 mm 0.00 W/m2
15:40 2.6 °C -0.8 °C 1014.4 hPa Calm     78% 0.0 mm 0.00 W/m2
15:45 2.5 °C -0.9 °C 1014.4 hPa Calm     78% 0.0 mm 0.00 W/m2
15:50 2.4 °C -0.9 °C 1014.4 hPa NW 3.2 km/h 4.8 km/h 79% 0.0 mm 0.00 W/m2
15:55 2.4 °C -0.9 °C 1014.4 hPa NW 7.9 km/h 8.0 km/h 79% 0.0 mm 0.00 W/m2
16:00 2.6 °C -0.5 °C 1014.4 hPa NNW 6.4 km/h 9.7 km/h 80% 0.0 mm 0.00 W/m2
16:05 2.7 °C -0.6 °C 1014.4 hPa NW 4.7 km/h 8.0 km/h 79% 0.0 mm 0.00 W/m2
16:10 2.7 °C -0.6 °C 1014.4 hPa NW 6.4 km/h 8.0 km/h 79% 0.0 mm 0.00 W/m2
16:15 2.8 °C -0.5 °C 1014.8 hPa NW 3.2 km/h 6.4 km/h 79% 0.0 mm 0.00 W/m2
16:20 2.8 °C -0.5 °C 1014.8 hPa NW 4.7 km/h 6.4 km/h 79% 0.0 mm 0.00 W/m2
16:25 2.9 °C -0.4 °C 1014.8 hPa NNW 4.7 km/h 6.4 km/h 79% 0.0 mm 0.00 W/m2
16:30 3.1 °C -0.2 °C 1014.8 hPa NNW 3.2 km/h 4.8 km/h 79% 0.0 mm 0.00 W/m2
16:36 2.9 °C -0.4 °C 1014.8 hPa NNW 4.7 km/h 6.4 km/h 79% 0.0 mm 0.00 W/m2
16:40 2.8 °C -0.5 °C 1014.8 hPa NNW 1.4 km/h 4.8 km/h 79% 0.0 mm 0.00 W/m2
16:45 2.8 °C -0.5 °C 1014.8 hPa NW 3.2 km/h 8.0 km/h 79% 0.0 mm 0.00 W/m2
16:50 2.8 °C -0.5 °C 1014.8 hPa NW 1.4 km/h 4.8 km/h 79% 0.0 mm 0.00 W/m2
16:55 2.8 °C -0.5 °C 1014.8 hPa NW 4.7 km/h 4.8 km/h 79% 0.0 mm 0.00 W/m2
17:00 2.7 °C -0.4 °C 1014.8 hPa NW 3.2 km/h 3.2 km/h 80% 0.0 mm 0.00 W/m2
17:05 2.6 °C -0.5 °C 1014.8 hPa NW 1.4 km/h 3.2 km/h 80% 0.0 mm 0.00 W/m2
17:10 2.5 °C -0.4 °C 1014.4 hPa Calm   3.2 km/h 81% 0.0 mm 0.00 W/m2
17:16 2.3 °C -0.6 °C 1014.8 hPa Calm     81% 0.0 mm 0.00 W/m2
17:20 2.2 °C -0.7 °C 1014.8 hPa Calm     81% 0.0 mm 0.00 W/m2
17:25 2.2 °C -0.7 °C 1014.8 hPa Calm   3.2 km/h 81% 0.0 mm 0.00 W/m2
17:30 2.1 °C -0.7 °C 1014.8 hPa Calm   1.6 km/h 82% 0.0 mm 0.00 W/m2
17:35 1.9 °C -0.8 °C 1014.8 hPa Calm     82% 0.0 mm 0.00 W/m2
17:40 1.9 °C -0.8 °C 1014.8 hPa Calm     82% 0.0 mm 0.00 W/m2
17:45 1.9 °C -0.7 °C 1014.8 hPa Calm     83% 0.0 mm 0.00 W/m2
17:50 1.8 °C -0.8 °C 1014.8 hPa Calm     83% 0.0 mm 0.00 W/m2
17:55 1.7 °C -0.7 °C 1014.8 hPa NW 4.7 km/h 4.8 km/h 84% 0.0 mm 0.00 W/m2
18:00 1.7 °C -0.7 °C 1014.8 hPa Calm   4.8 km/h 84% 0.0 mm 0.00 W/m2
18:05 1.7 °C -0.7 °C 1014.8 hPa Calm   1.6 km/h 84% 0.0 mm 0.00 W/m2
18:10 1.6 °C -0.8 °C 1014.8 hPa Calm   3.2 km/h 84% 0.0 mm 0.00 W/m2
18:15 1.5 °C -0.7 °C 1014.8 hPa Calm     85% 0.0 mm 0.00 W/m2
18:20 1.4 °C -0.8 °C 1014.8 hPa Calm   3.2 km/h 85% 0.0 mm 0.00 W/m2
18:25 1.4 °C -0.8 °C 1014.8 hPa Calm   1.6 km/h 85% 0.0 mm 0.00 W/m2
18:30 1.4 °C -0.7 °C 1014.8 hPa Calm   1.6 km/h 86% 0.0 mm 0.00 W/m2
18:35 1.4 °C -0.7 °C 1014.8 hPa NW 3.2 km/h 3.2 km/h 86% 0.0 mm 0.00 W/m2
18:40 1.3 °C -0.8 °C 1014.8 hPa Calm     86% 0.0 mm 0.00 W/m2
18:45 1.3 °C -0.8 °C 1014.8 hPa Calm   3.2 km/h 86% 0.0 mm 0.00 W/m2
18:50 1.2 °C -0.9 °C 1014.8 hPa Calm     86% 0.0 mm 0.00 W/m2
18:55 1.1 °C -0.8 °C 1014.8 hPa NW 3.2 km/h 4.8 km/h 87% 0.0 mm 0.00 W/m2
19:00 1.1 °C -0.8 °C 1014.8 hPa NW 1.4 km/h 6.4 km/h 87% 0.0 mm 0.00 W/m2
19:05 1.2 °C -0.7 °C 1014.8 hPa Calm     87% 0.0 mm 0.00 W/m2
19:10 1.2 °C -0.7 °C 1014.4 hPa Calm   3.2 km/h 87% 0.0 mm 0.00 W/m2
19:15 1.2 °C -0.7 °C 1014.8 hPa NW 1.4 km/h 3.2 km/h 87% 0.0 mm 0.00 W/m2
19:20 1.2 °C -0.7 °C 1014.4 hPa Calm   1.6 km/h 87% 0.0 mm 0.00 W/m2
19:25 1.2 °C -0.6 °C 1014.4 hPa Calm   6.4 km/h 88% 0.0 mm 0.00 W/m2
19:30 1.3 °C -0.5 °C 1014.4 hPa WSW 3.2 km/h 4.8 km/h 88% 0.0 mm 0.00 W/m2
19:35 1.4 °C -0.4 °C 1014.4 hPa Calm   3.2 km/h 88% 0.0 mm 0.00 W/m2
19:40 1.4 °C -0.4 °C 1014.4 hPa West 1.4 km/h 4.8 km/h 88% 0.0 mm 0.00 W/m2
19:45 1.5 °C -0.3 °C 1014.4 hPa West 1.4 km/h 3.2 km/h 88% 0.0 mm 0.00 W/m2
19:50 1.5 °C -0.3 °C 1014.4 hPa West 1.4 km/h 3.2 km/h 88% 0.0 mm 0.00 W/m2
19:55 1.5 °C -0.3 °C 1014.4 hPa Calm     88% 0.0 mm 0.00 W/m2
20:00 1.5 °C -0.3 °C 1014.4 hPa Calm     88% 0.0 mm 0.00 W/m2
20:05 1.4 °C -0.4 °C 1014.4 hPa West 1.4 km/h 3.2 km/h 88% 0.0 mm 0.00 W/m2
20:10 1.5 °C -0.3 °C 1014.4 hPa Calm   1.6 km/h 88% 0.0 mm 0.00 W/m2
20:15 1.5 °C -0.3 °C 1014.4 hPa Calm     88% 0.0 mm 0.00 W/m2
20:20 1.5 °C -0.1 °C 1014.4 hPa Calm   3.2 km/h 89% 0.0 mm 0.00 W/m2
20:25 1.5 °C -0.1 °C 1014.4 hPa West 1.4 km/h 1.6 km/h 89% 0.0 mm 0.00 W/m2
20:30 1.5 °C -0.1 °C 1014.4 hPa West 1.4 km/h 1.6 km/h 89% 0.0 mm 0.00 W/m2
20:35 1.5 °C -0.1 °C 1014.4 hPa Calm   1.6 km/h 89% 0.0 mm 0.00 W/m2
20:40 1.4 °C -0.2 °C 1014.4 hPa Calm     89% 0.0 mm 0.00 W/m2
20:45 1.4 °C -0.2 °C 1014.4 hPa West 3.2 km/h 3.2 km/h 89% 0.0 mm 0.00 W/m2
20:50 1.5 °C -0.1 °C 1014.4 hPa West 1.4 km/h 3.2 km/h 89% 0.0 mm 0.00 W/m2
20:55 1.5 °C -0.1 °C 1014.4 hPa West 3.2 km/h 4.8 km/h 89% 0.0 mm 0.00 W/m2
21:00 1.5 °C -0.1 °C 1014.1 hPa West 1.4 km/h 3.2 km/h 89% 0.0 mm 0.00 W/m2
21:05 1.6 °C 0.0 °C 1014.1 hPa Calm   1.6 km/h 89% 0.0 mm 0.00 W/m2
21:10 1.6 °C 0.0 °C 1014.1 hPa West 1.4 km/h 3.2 km/h 89% 0.0 mm 0.00 W/m2
21:15 1.6 °C 0.0 °C 1013.8 hPa West 3.2 km/h 4.8 km/h 89% 0.0 mm 0.00 W/m2
21:20 1.6 °C 0.0 °C 1013.8 hPa West 1.4 km/h 3.2 km/h 89% 0.0 mm 0.00 W/m2
21:25 1.6 °C 0.0 °C 1013.8 hPa West 1.4 km/h 4.8 km/h 89% 0.0 mm 0.00 W/m2
21:30 1.8 °C 0.2 °C 1013.8 hPa West 1.4 km/h 3.2 km/h 89% 0.0 mm 0.00 W/m2
21:35 1.9 °C 0.3 °C 1013.8 hPa WNW 3.2 km/h 4.8 km/h 89% 0.0 mm 0.00 W/m2
21:40 2.1 °C 0.6 °C 1013.4 hPa WNW 4.7 km/h 4.8 km/h 90% 0.0 mm 0.00 W/m2
21:45 2.1 °C 0.5 °C 1013.4 hPa WNW 1.4 km/h 3.2 km/h 89% 0.0 mm 0.00 W/m2
21:50 2.1 °C 0.5 °C 1013.4 hPa WNW 1.4 km/h 3.2 km/h 89% 0.0 mm 0.00 W/m2
21:55 2.1 °C 0.5 °C 1013.4 hPa Calm     89% 0.0 mm 0.00 W/m2